sensor_id;sensor_type;location;lat;lon;timestamp;temperature;humidity
17984;DHT22;9117;52.420;20.728;2022-08-21T00:01:45;22.60;99.90
17984;DHT22;9117;52.420;20.728;2022-08-21T00:04:13;22.50;99.90
17984;DHT22;9117;52.420;20.728;2022-08-21T00:06:49;22.60;99.90
17984;DHT22;9117;52.420;20.728;2022-08-21T00:09:19;22.30;99.90
17984;DHT22;9117;52.420;20.728;2022-08-21T00:11:47;21.90;99.90
17984;DHT22;9117;52.420;20.728;2022-08-21T00:14:16;21.80;99.90
17984;DHT22;9117;52.420;20.728;2022-08-21T00:16:44;21.70;99.90
17984;DHT22;9117;52.420;20.728;2022-08-21T00:19:13;21.50;99.90
17984;DHT22;9117;52.420;20.728;2022-08-21T00:21:41;21.50;99.90
17984;DHT22;9117;52.420;20.728;2022-08-21T00:24:12;21.50;99.90
17984;DHT22;9117;52.420;20.728;2022-08-21T00:26:40;21.60;99.90
17984;DHT22;9117;52.420;20.728;2022-08-21T00:29:10;21.50;99.90
17984;DHT22;9117;52.420;20.728;2022-08-21T00:31:38;21.10;99.90
17984;DHT22;9117;52.420;20.728;2022-08-21T00:34:07;20.90;99.90
17984;DHT22;9117;52.420;20.728;2022-08-21T00:36:35;20.80;99.90
17984;DHT22;9117;52.420;20.728;2022-08-21T00:39:05;20.70;99.90
17984;DHT22;9117;52.420;20.728;2022-08-21T00:41:37;20.70;99.90
17984;DHT22;9117;52.420;20.728;2022-08-21T00:44:08;20.70;99.90
17984;DHT22;9117;52.420;20.728;2022-08-21T00:46:37;20.70;99.90
17984;DHT22;9117;52.420;20.728;2022-08-21T00:49:06;20.50;99.90
17984;DHT22;9117;52.420;20.728;2022-08-21T00:51:38;20.50;99.90
17984;DHT22;9117;52.420;20.728;2022-08-21T00:54:08;20.50;99.90
17984;DHT22;9117;52.420;20.728;2022-08-21T00:56:50;20.50;99.90
17984;DHT22;9117;52.420;20.728;2022-08-21T00:59:21;20.40;99.90
17984;DHT22;9117;52.420;20.728;2022-08-21T01:01:50;20.40;99.90
17984;DHT22;9117;52.420;20.728;2022-08-21T01:04:19;20.40;99.90
17984;DHT22;9117;52.420;20.728;2022-08-21T01:06:47;20.40;99.90
17984;DHT22;9117;52.420;20.728;2022-08-21T01:09:15;20.60;99.90
17984;DHT22;9117;52.420;20.728;2022-08-21T01:11:46;20.70;99.90
17984;DHT22;9117;52.420;20.728;2022-08-21T01:14:15;20.80;99.90
17984;DHT22;9117;52.420;20.728;2022-08-21T01:16:47;20.80;99.90
17984;DHT22;9117;52.420;20.728;2022-08-21T01:19:17;20.60;99.90
17984;DHT22;9117;52.420;20.728;2022-08-21T01:21:47;20.50;99.90
17984;DHT22;9117;52.420;20.728;2022-08-21T01:24:15;20.50;99.90
17984;DHT22;9117;52.420;20.728;2022-08-21T01:26:44;20.40;99.90
17984;DHT22;9117;52.420;20.728;2022-08-21T01:29:23;20.40;99.90
17984;DHT22;9117;52.420;20.728;2022-08-21T01:31:54;20.30;99.90
17984;DHT22;9117;52.420;20.728;2022-08-21T01:34:22;20.40;99.90
17984;DHT22;9117;52.420;20.728;2022-08-21T01:36:51;20.40;99.90
17984;DHT22;9117;52.420;20.728;2022-08-21T01:39:20;20.40;99.90
17984;DHT22;9117;52.420;20.728;2022-08-21T01:41:48;20.40;99.90
17984;DHT22;9117;52.420;20.728;2022-08-21T01:44:16;20.40;99.90
17984;DHT22;9117;52.420;20.728;2022-08-21T01:46:47;20.40;99.90
17984;DHT22;9117;52.420;20.728;2022-08-21T01:49:16;20.40;99.90
17984;DHT22;9117;52.420;20.728;2022-08-21T01:51:44;20.40;99.90
17984;DHT22;9117;52.420;20.728;2022-08-21T01:54:13;20.40;99.90
17984;DHT22;9117;52.420;20.728;2022-08-21T01:56:45;20.50;99.90
17984;DHT22;9117;52.420;20.728;2022-08-21T01:59:14;20.50;99.90
17984;DHT22;9117;52.420;20.728;2022-08-21T02:01:42;20.60;99.90
17984;DHT22;9117;52.420;20.728;2022-08-21T02:04:11;20.70;99.90
17984;DHT22;9117;52.420;20.728;2022-08-21T02:06:39;20.80;99.90
17984;DHT22;9117;52.420;20.728;2022-08-21T02:09:10;20.70;99.90
17984;DHT22;9117;52.420;20.728;2022-08-21T02:11:42;20.60;99.90
17984;DHT22;9117;52.420;20.728;2022-08-21T02:14:12;20.60;99.90
17984;DHT22;9117;52.420;20.728;2022-08-21T02:16:41;20.50;99.90
17984;DHT22;9117;52.420;20.728;2022-08-21T02:19:11;20.20;99.90
17984;DHT22;9117;52.420;20.728;2022-08-21T02:21:40;20.30;99.90
17984;DHT22;9117;52.420;20.728;2022-08-21T02:24:08;20.40;99.90
17984;DHT22;9117;52.420;20.728;2022-08-21T02:26:36;20.30;99.90
17984;DHT22;9117;52.420;20.728;2022-08-21T02:29:06;20.30;99.90
17984;DHT22;9117;52.420;20.728;2022-08-21T02:31:35;20.30;99.90
17984;DHT22;9117;52.420;20.728;2022-08-21T02:34:03;20.40;99.90
17984;DHT22;9117;52.420;20.728;2022-08-21T02:36:31;20.40;99.90
17984;DHT22;9117;52.420;20.728;2022-08-21T02:39:00;20.50;99.90
17984;DHT22;9117;52.420;20.728;2022-08-21T02:41:28;20.50;99.90
17984;DHT22;9117;52.420;20.728;2022-08-21T02:43:56;20.60;99.90
17984;DHT22;9117;52.420;20.728;2022-08-21T02:46:25;20.50;99.90
17984;DHT22;9117;52.420;20.728;2022-08-21T02:48:53;20.30;99.90
17984;DHT22;9117;52.420;20.728;2022-08-21T02:51:21;20.10;99.90
17984;DHT22;9117;52.420;20.728;2022-08-21T02:53:50;20.10;99.90
17984;DHT22;9117;52.420;20.728;2022-08-21T02:56:20;20.00;99.90
17984;DHT22;9117;52.420;20.728;2022-08-21T02:58:50;20.00;99.90
17984;DHT22;9117;52.420;20.728;2022-08-21T03:01:19;19.90;99.90
17984;DHT22;9117;52.420;20.728;2022-08-21T03:03:50;19.70;99.90
17984;DHT22;9117;52.420;20.728;2022-08-21T03:06:20;19.60;99.90
17984;DHT22;9117;52.420;20.728;2022-08-21T03:08:48;19.40;99.90
17984;DHT22;9117;52.420;20.728;2022-08-21T03:11:17;19.50;99.90
17984;DHT22;9117;52.420;20.728;2022-08-21T03:13:45;19.60;99.90
17984;DHT22;9117;52.420;20.728;2022-08-21T03:16:14;19.60;99.90
17984;DHT22;9117;52.420;20.728;2022-08-21T03:18:42;19.50;99.90
17984;DHT22;9117;52.420;20.728;2022-08-21T03:21:12;19.60;99.90
17984;DHT22;9117;52.420;20.728;2022-08-21T03:23:40;19.60;99.90
17984;DHT22;9117;52.420;20.728;2022-08-21T03:26:09;19.60;99.90
17984;DHT22;9117;52.420;20.728;2022-08-21T03:28:38;19.70;99.90
17984;DHT22;9117;52.420;20.728;2022-08-21T03:31:06;19.80;99.90
17984;DHT22;9117;52.420;20.728;2022-08-21T03:33:35;19.70;99.90
17984;DHT22;9117;52.420;20.728;2022-08-21T03:36:06;19.50;99.90
17984;DHT22;9117;52.420;20.728;2022-08-21T03:38:37;19.50;99.90
17984;DHT22;9117;52.420;20.728;2022-08-21T03:41:05;19.40;99.90
17984;DHT22;9117;52.420;20.728;2022-08-21T03:43:34;19.30;99.90
17984;DHT22;9117;52.420;20.728;2022-08-21T03:46:04;19.30;99.90
17984;DHT22;9117;52.420;20.728;2022-08-21T03:48:33;19.30;99.90
17984;DHT22;9117;52.420;20.728;2022-08-21T03:51:02;19.30;99.90
17984;DHT22;9117;52.420;20.728;2022-08-21T03:53:30;19.30;99.90
17984;DHT22;9117;52.420;20.728;2022-08-21T03:55:59;19.40;99.90
17984;DHT22;9117;52.420;20.728;2022-08-21T03:58:28;19.40;99.90
17984;DHT22;9117;52.420;20.728;2022-08-21T04:00:58;19.50;99.90
17984;DHT22;9117;52.420;20.728;2022-08-21T04:03:27;19.70;99.90
17984;DHT22;9117;52.420;20.728;2022-08-21T04:05:55;19.40;99.90
17984;DHT22;9117;52.420;20.728;2022-08-21T04:08:23;19.20;99.90
17984;DHT22;9117;52.420;20.728;2022-08-21T04:10:54;19.20;99.90
17984;DHT22;9117;52.420;20.728;2022-08-21T04:13:24;19.30;99.90
17984;DHT22;9117;52.420;20.728;2022-08-21T04:15:53;19.30;99.90
17984;DHT22;9117;52.420;20.728;2022-08-21T04:18:21;19.50;99.90
17984;DHT22;9117;52.420;20.728;2022-08-21T04:20:51;19.70;99.90
17984;DHT22;9117;52.420;20.728;2022-08-21T04:23:20;19.80;99.90
17984;DHT22;9117;52.420;20.728;2022-08-21T04:25:50;19.70;99.90
17984;DHT22;9117;52.420;20.728;2022-08-21T04:28:18;19.70;99.90
17984;DHT22;9117;52.420;20.728;2022-08-21T04:30:50;19.70;99.90
17984;DHT22;9117;52.420;20.728;2022-08-21T04:33:19;19.60;99.90
17984;DHT22;9117;52.420;20.728;2022-08-21T04:35:47;19.50;99.90
17984;DHT22;9117;52.420;20.728;2022-08-21T04:38:15;19.60;99.90
17984;DHT22;9117;52.420;20.728;2022-08-21T04:40:43;19.60;99.90
17984;DHT22;9117;52.420;20.728;2022-08-21T04:43:12;19.70;99.90
17984;DHT22;9117;52.420;20.728;2022-08-21T04:45:41;19.70;99.90
17984;DHT22;9117;52.420;20.728;2022-08-21T04:48:12;19.60;99.90
17984;DHT22;9117;52.420;20.728;2022-08-21T04:50:43;19.60;99.90
17984;DHT22;9117;52.420;20.728;2022-08-21T04:53:20;19.60;99.90
17984;DHT22;9117;52.420;20.728;2022-08-21T04:55:50;19.30;1.00
17984;DHT22;9117;52.420;20.728;2022-08-21T04:58:23;19.60;99.90
17984;DHT22;9117;52.420;20.728;2022-08-21T05:00:54;19.70;99.90
17984;DHT22;9117;52.420;20.728;2022-08-21T05:03:24;19.80;99.90
17984;DHT22;9117;52.420;20.728;2022-08-21T05:05:53;19.90;99.90
17984;DHT22;9117;52.420;20.728;2022-08-21T05:08:23;19.80;99.90
17984;DHT22;9117;52.420;20.728;2022-08-21T05:10:53;19.80;99.90
17984;DHT22;9117;52.420;20.728;2022-08-21T05:13:26;19.80;99.90
17984;DHT22;9117;52.420;20.728;2022-08-21T05:15:57;19.80;99.90
17984;DHT22;9117;52.420;20.728;2022-08-21T05:18:27;19.90;99.90
17984;DHT22;9117;52.420;20.728;2022-08-21T05:20:55;19.90;99.90
17984;DHT22;9117;52.420;20.728;2022-08-21T05:23:24;20.00;99.90
17984;DHT22;9117;52.420;20.728;2022-08-21T05:25:53;20.10;99.90
17984;DHT22;9117;52.420;20.728;2022-08-21T05:28:21;20.20;99.90
17984;DHT22;9117;52.420;20.728;2022-08-21T05:30:53;20.30;99.90
17984;DHT22;9117;52.420;20.728;2022-08-21T05:33:21;20.20;99.90
17984;DHT22;9117;52.420;20.728;2022-08-21T05:35:51;20.30;99.90
17984;DHT22;9117;52.420;20.728;2022-08-21T05:38:23;20.30;99.90
17984;DHT22;9117;52.420;20.728;2022-08-21T05:40:51;20.40;99.90
17984;DHT22;9117;52.420;20.728;2022-08-21T05:43:19;20.50;99.90
17984;DHT22;9117;52.420;20.728;2022-08-21T05:45:50;20.50;99.90
17984;DHT22;9117;52.420;20.728;2022-08-21T05:48:23;20.50;99.90
17984;DHT22;9117;52.420;20.728;2022-08-21T05:50:53;20.60;99.90
17984;DHT22;9117;52.420;20.728;2022-08-21T05:53:25;20.70;99.90
17984;DHT22;9117;52.420;20.728;2022-08-21T05:55:54;20.70;99.90
17984;DHT22;9117;52.420;20.728;2022-08-21T05:58:22;20.90;99.90
17984;DHT22;9117;52.420;20.728;2022-08-21T06:00:51;20.90;99.90
17984;DHT22;9117;52.420;20.728;2022-08-21T06:03:22;21.00;99.90
17984;DHT22;9117;52.420;20.728;2022-08-21T06:05:53;20.90;99.90
17984;DHT22;9117;52.420;20.728;2022-08-21T06:08:22;21.10;99.90
17984;DHT22;9117;52.420;20.728;2022-08-21T06:10:52;21.20;99.90
17984;DHT22;9117;52.420;20.728;2022-08-21T06:13:21;21.20;99.90
17984;DHT22;9117;52.420;20.728;2022-08-21T06:18:18;21.40;99.90
17984;DHT22;9117;52.420;20.728;2022-08-21T06:20:46;21.50;99.90
17984;DHT22;9117;52.420;20.728;2022-08-21T06:23:15;21.60;99.90
17984;DHT22;9117;52.420;20.728;2022-08-21T06:33:10;22.30;1.00
17984;DHT22;9117;52.420;20.728;2022-08-21T06:35:38;22.00;99.90
17984;DHT22;9117;52.420;20.728;2022-08-21T06:38:07;21.90;99.90
17984;DHT22;9117;52.420;20.728;2022-08-21T06:40:38;22.00;99.90
17984;DHT22;9117;52.420;20.728;2022-08-21T06:43:15;22.10;99.90
17984;DHT22;9117;52.420;20.728;2022-08-21T06:45:45;22.20;99.90
17984;DHT22;9117;52.420;20.728;2022-08-21T06:48:13;22.30;99.90
17984;DHT22;9117;52.420;20.728;2022-08-21T06:50:45;22.40;99.90
17984;DHT22;9117;52.420;20.728;2022-08-21T06:53:16;22.40;99.90
17984;DHT22;9117;52.420;20.728;2022-08-21T06:55:47;22.40;99.90
17984;DHT22;9117;52.420;20.728;2022-08-21T06:58:16;22.40;99.90
17984;DHT22;9117;52.420;20.728;2022-08-21T07:00:50;22.50;99.90
17984;DHT22;9117;52.420;20.728;2022-08-21T07:03:28;22.50;99.90
17984;DHT22;9117;52.420;20.728;2022-08-21T07:05:56;22.60;99.90
17984;DHT22;9117;52.420;20.728;2022-08-21T07:08:26;22.70;99.90
17984;DHT22;9117;52.420;20.728;2022-08-21T07:10:58;22.60;99.90
17984;DHT22;9117;52.420;20.728;2022-08-21T07:13:26;22.60;99.90
17984;DHT22;9117;52.420;20.728;2022-08-21T07:15:55;22.70;99.90
17984;DHT22;9117;52.420;20.728;2022-08-21T07:18:29;22.70;99.90
17984;DHT22;9117;52.420;20.728;2022-08-21T07:20:57;22.80;99.90
17984;DHT22;9117;52.420;20.728;2022-08-21T07:23:28;22.90;99.90
17984;DHT22;9117;52.420;20.728;2022-08-21T07:25:58;23.00;99.90
17984;DHT22;9117;52.420;20.728;2022-08-21T07:28:27;23.00;99.90
17984;DHT22;9117;52.420;20.728;2022-08-21T07:30:57;23.10;99.90
17984;DHT22;9117;52.420;20.728;2022-08-21T07:33:27;23.10;99.90
17984;DHT22;9117;52.420;20.728;2022-08-21T07:35:55;23.10;99.90
17984;DHT22;9117;52.420;20.728;2022-08-21T07:38:25;23.10;99.90
17984;DHT22;9117;52.420;20.728;2022-08-21T07:40:55;23.10;99.90
17984;DHT22;9117;52.420;20.728;2022-08-21T07:43:27;23.20;99.90
17984;DHT22;9117;52.420;20.728;2022-08-21T07:45:55;23.20;99.90
17984;DHT22;9117;52.420;20.728;2022-08-21T07:48:24;23.30;99.90
17984;DHT22;9117;52.420;20.728;2022-08-21T07:50:52;23.40;99.90
17984;DHT22;9117;52.420;20.728;2022-08-21T07:53:22;23.50;99.90
17984;DHT22;9117;52.420;20.728;2022-08-21T07:55:50;23.50;99.90
17984;DHT22;9117;52.420;20.728;2022-08-21T07:58:18;23.50;99.90
17984;DHT22;9117;52.420;20.728;2022-08-21T08:00:47;23.60;99.90
17984;DHT22;9117;52.420;20.728;2022-08-21T08:03:16;23.60;99.90
17984;DHT22;9117;52.420;20.728;2022-08-21T08:05:56;23.70;99.90
17984;DHT22;9117;52.420;20.728;2022-08-21T08:08:24;23.70;99.90
17984;DHT22;9117;52.420;20.728;2022-08-21T08:10:53;23.80;99.90
17984;DHT22;9117;52.420;20.728;2022-08-21T08:13:23;24.00;99.90
17984;DHT22;9117;52.420;20.728;2022-08-21T08:15:52;24.10;99.90
17984;DHT22;9117;52.420;20.728;2022-08-21T08:18:21;24.20;99.90
17984;DHT22;9117;52.420;20.728;2022-08-21T08:20:49;24.20;99.90
17984;DHT22;9117;52.420;20.728;2022-08-21T08:23:17;24.30;99.90
17984;DHT22;9117;52.420;20.728;2022-08-21T08:25:45;24.50;99.90
17984;DHT22;9117;52.420;20.728;2022-08-21T08:28:13;24.50;99.90
17984;DHT22;9117;52.420;20.728;2022-08-21T08:30:43;24.60;99.90
17984;DHT22;9117;52.420;20.728;2022-08-21T08:33:14;24.60;99.90
17984;DHT22;9117;52.420;20.728;2022-08-21T08:35:42;24.60;99.90
17984;DHT22;9117;52.420;20.728;2022-08-21T08:38:12;24.50;99.90
17984;DHT22;9117;52.420;20.728;2022-08-21T08:40:52;24.80;99.90
17984;DHT22;9117;52.420;20.728;2022-08-21T08:43:21;24.90;99.90
17984;DHT22;9117;52.420;20.728;2022-08-21T08:45:50;24.90;99.90
17984;DHT22;9117;52.420;20.728;2022-08-21T08:48:39;24.90;99.90
17984;DHT22;9117;52.420;20.728;2022-08-21T08:51:13;25.00;99.90
17984;DHT22;9117;52.420;20.728;2022-08-21T08:53:49;25.10;99.90
17984;DHT22;9117;52.420;20.728;2022-08-21T08:56:22;25.10;99.90
17984;DHT22;9117;52.420;20.728;2022-08-21T08:58:58;25.20;99.90
17984;DHT22;9117;52.420;20.728;2022-08-21T09:01:28;25.10;99.90
17984;DHT22;9117;52.420;20.728;2022-08-21T09:04:03;25.30;99.90
17984;DHT22;9117;52.420;20.728;2022-08-21T09:06:41;25.10;99.90
17984;DHT22;9117;52.420;20.728;2022-08-21T09:09:28;25.30;99.90
17984;DHT22;9117;52.420;20.728;2022-08-21T09:12:03;25.30;99.90
17984;DHT22;9117;52.420;20.728;2022-08-21T09:14:46;25.50;99.90
17984;DHT22;9117;52.420;20.728;2022-08-21T09:17:31;25.50;99.90
17984;DHT22;9117;52.420;20.728;2022-08-21T09:20:11;25.60;99.90
17984;DHT22;9117;52.420;20.728;2022-08-21T09:22:50;25.50;99.90
17984;DHT22;9117;52.420;20.728;2022-08-21T09:25:27;25.90;99.90
17984;DHT22;9117;52.420;20.728;2022-08-21T09:27:55;25.90;99.90
17984;DHT22;9117;52.420;20.728;2022-08-21T09:30:27;25.70;99.90
17984;DHT22;9117;52.420;20.728;2022-08-21T09:32:55;25.90;99.90
17984;DHT22;9117;52.420;20.728;2022-08-21T09:35:25;25.90;99.90
17984;DHT22;9117;52.420;20.728;2022-08-21T09:37:55;26.00;99.90
17984;DHT22;9117;52.420;20.728;2022-08-21T09:40:39;26.00;99.90
17984;DHT22;9117;52.420;20.728;2022-08-21T09:43:17;25.90;99.90
17984;DHT22;9117;52.420;20.728;2022-08-21T09:45:46;25.80;99.90
17984;DHT22;9117;52.420;20.728;2022-08-21T09:48:19;25.70;99.90
17984;DHT22;9117;52.420;20.728;2022-08-21T09:50:53;25.70;99.90
17984;DHT22;9117;52.420;20.728;2022-08-21T09:53:32;25.70;99.90
17984;DHT22;9117;52.420;20.728;2022-08-21T09:56:04;25.80;99.90
17984;DHT22;9117;52.420;20.728;2022-08-21T09:58:51;26.20;99.90
17984;DHT22;9117;52.420;20.728;2022-08-21T10:01:23;26.20;99.90
17984;DHT22;9117;52.420;20.728;2022-08-21T10:04:02;26.30;99.90
17984;DHT22;9117;52.420;20.728;2022-08-21T10:06:32;26.20;99.90
17984;DHT22;9117;52.420;20.728;2022-08-21T10:09:07;26.10;99.90
17984;DHT22;9117;52.420;20.728;2022-08-21T10:11:49;25.90;99.90
17984;DHT22;9117;52.420;20.728;2022-08-21T10:14:30;25.90;99.90
17984;DHT22;9117;52.420;20.728;2022-08-21T10:17:10;26.00;99.90
17984;DHT22;9117;52.420;20.728;2022-08-21T10:19:48;26.30;99.90
17984;DHT22;9117;52.420;20.728;2022-08-21T10:22:28;26.50;99.90
17984;DHT22;9117;52.420;20.728;2022-08-21T10:25:06;26.50;99.90
17984;DHT22;9117;52.420;20.728;2022-08-21T10:30:11;26.80;99.90
17984;DHT22;9117;52.420;20.728;2022-08-21T10:32:51;26.70;99.90
17984;DHT22;9117;52.420;20.728;2022-08-21T10:35:24;26.50;99.90
17984;DHT22;9117;52.420;20.728;2022-08-21T10:38:17;26.40;99.90
17984;DHT22;9117;52.420;20.728;2022-08-21T10:41:14;26.30;99.90
17984;DHT22;9117;52.420;20.728;2022-08-21T10:43:51;26.50;99.90
17984;DHT22;9117;52.420;20.728;2022-08-21T10:46:32;26.50;99.90
17984;DHT22;9117;52.420;20.728;2022-08-21T10:49:15;26.60;99.90
17984;DHT22;9117;52.420;20.728;2022-08-21T10:51:51;26.70;99.90
17984;DHT22;9117;52.420;20.728;2022-08-21T10:54:31;26.80;99.90
17984;DHT22;9117;52.420;20.728;2022-08-21T10:57:05;27.20;99.90
17984;DHT22;9117;52.420;20.728;2022-08-21T10:59:41;27.40;99.90
17984;DHT22;9117;52.420;20.728;2022-08-21T11:02:17;27.40;99.90
17984;DHT22;9117;52.420;20.728;2022-08-21T11:04:52;27.40;99.90
17984;DHT22;9117;52.420;20.728;2022-08-21T11:07:25;27.60;99.90
17984;DHT22;9117;52.420;20.728;2022-08-21T11:10:05;27.50;99.90
17984;DHT22;9117;52.420;20.728;2022-08-21T11:12:41;27.40;99.90
17984;DHT22;9117;52.420;20.728;2022-08-21T11:15:31;27.20;99.90
17984;DHT22;9117;52.420;20.728;2022-08-21T11:18:15;27.00;99.90
17984;DHT22;9117;52.420;20.728;2022-08-21T11:20:49;27.00;99.90
17984;DHT22;9117;52.420;20.728;2022-08-21T11:23:25;27.00;99.90
17984;DHT22;9117;52.420;20.728;2022-08-21T11:26:02;27.30;99.90
17984;DHT22;9117;52.420;20.728;2022-08-21T11:28:35;27.50;99.90
17984;DHT22;9117;52.420;20.728;2022-08-21T11:31:14;27.50;99.90
17984;DHT22;9117;52.420;20.728;2022-08-21T11:33:56;27.40;99.90
17984;DHT22;9117;52.420;20.728;2022-08-21T11:36:36;27.40;99.90
17984;DHT22;9117;52.420;20.728;2022-08-21T11:39:22;27.30;99.90
17984;DHT22;9117;52.420;20.728;2022-08-21T11:42:02;27.10;99.90
17984;DHT22;9117;52.420;20.728;2022-08-21T11:44:46;27.00;99.90
17984;DHT22;9117;52.420;20.728;2022-08-21T11:47:22;26.90;99.90
17984;DHT22;9117;52.420;20.728;2022-08-21T11:50:07;26.90;99.90
17984;DHT22;9117;52.420;20.728;2022-08-21T11:53:04;26.80;99.90
17984;DHT22;9117;52.420;20.728;2022-08-21T11:55:44;26.70;99.90
17984;DHT22;9117;52.420;20.728;2022-08-21T11:58:20;26.60;99.90
17984;DHT22;9117;52.420;20.728;2022-08-21T12:00:52;26.60;99.90
17984;DHT22;9117;52.420;20.728;2022-08-21T12:03:26;26.70;99.90
17984;DHT22;9117;52.420;20.728;2022-08-21T12:05:57;26.80;99.90
17984;DHT22;9117;52.420;20.728;2022-08-21T12:08:29;27.20;99.90
17984;DHT22;9117;52.420;20.728;2022-08-21T12:11:04;27.50;99.90
17984;DHT22;9117;52.420;20.728;2022-08-21T12:13:36;27.70;99.90
17984;DHT22;9117;52.420;20.728;2022-08-21T12:16:13;28.00;99.90
17984;DHT22;9117;52.420;20.728;2022-08-21T12:18:42;28.00;99.90
17984;DHT22;9117;52.420;20.728;2022-08-21T12:21:22;27.90;99.90
17984;DHT22;9117;52.420;20.728;2022-08-21T12:24:04;28.20;99.90
17984;DHT22;9117;52.420;20.728;2022-08-21T12:26:35;28.40;99.90
17984;DHT22;9117;52.420;20.728;2022-08-21T12:29:23;28.50;99.90
17984;DHT22;9117;52.420;20.728;2022-08-21T12:31:59;28.70;99.90
17984;DHT22;9117;52.420;20.728;2022-08-21T12:34:33;28.80;99.90
17984;DHT22;9117;52.420;20.728;2022-08-21T12:37:09;28.50;99.90
17984;DHT22;9117;52.420;20.728;2022-08-21T12:39:44;28.70;99.90
17984;DHT22;9117;52.420;20.728;2022-08-21T12:42:17;28.80;99.90
17984;DHT22;9117;52.420;20.728;2022-08-21T12:44:50;29.10;99.90
17984;DHT22;9117;52.420;20.728;2022-08-21T12:47:27;29.50;99.90
17984;DHT22;9117;52.420;20.728;2022-08-21T12:50:01;29.80;99.90
17984;DHT22;9117;52.420;20.728;2022-08-21T12:52:34;30.10;99.90
17984;DHT22;9117;52.420;20.728;2022-08-21T12:55:06;30.40;99.90
17984;DHT22;9117;52.420;20.728;2022-08-21T12:57:36;30.50;99.90
17984;DHT22;9117;52.420;20.728;2022-08-21T13:00:08;30.00;99.90
17984;DHT22;9117;52.420;20.728;2022-08-21T13:02:42;30.50;99.90
17984;DHT22;9117;52.420;20.728;2022-08-21T13:05:13;30.50;99.90
17984;DHT22;9117;52.420;20.728;2022-08-21T13:07:45;31.00;99.90
17984;DHT22;9117;52.420;20.728;2022-08-21T13:10:18;31.40;99.90
17984;DHT22;9117;52.420;20.728;2022-08-21T13:12:47;31.70;99.90
17984;DHT22;9117;52.420;20.728;2022-08-21T13:15:23;32.00;99.90
17984;DHT22;9117;52.420;20.728;2022-08-21T13:17:59;32.10;99.90
17984;DHT22;9117;52.420;20.728;2022-08-21T13:20:31;32.10;99.90
17984;DHT22;9117;52.420;20.728;2022-08-21T13:23:01;31.30;99.90
17984;DHT22;9117;52.420;20.728;2022-08-21T13:25:34;30.50;99.90
17984;DHT22;9117;52.420;20.728;2022-08-21T13:28:06;30.00;99.90
17984;DHT22;9117;52.420;20.728;2022-08-21T13:30:40;29.60;99.90
17984;DHT22;9117;52.420;20.728;2022-08-21T13:33:12;29.50;99.90
17984;DHT22;9117;52.420;20.728;2022-08-21T13:35:49;29.40;99.90
17984;DHT22;9117;52.420;20.728;2022-08-21T13:38:20;29.00;99.90
17984;DHT22;9117;52.420;20.728;2022-08-21T13:40:55;29.30;99.90
17984;DHT22;9117;52.420;20.728;2022-08-21T13:43:28;29.70;99.90
17984;DHT22;9117;52.420;20.728;2022-08-21T13:46:00;30.40;99.90
17984;DHT22;9117;52.420;20.728;2022-08-21T13:48:32;31.00;99.90
17984;DHT22;9117;52.420;20.728;2022-08-21T13:51:02;31.20;99.90
17984;DHT22;9117;52.420;20.728;2022-08-21T13:53:33;31.20;99.90
17984;DHT22;9117;52.420;20.728;2022-08-21T13:56:04;31.40;99.90
17984;DHT22;9117;52.420;20.728;2022-08-21T13:58:41;31.30;99.90
17984;DHT22;9117;52.420;20.728;2022-08-21T14:01:19;31.60;99.90
17984;DHT22;9117;52.420;20.728;2022-08-21T14:03:50;31.40;99.90
17984;DHT22;9117;52.420;20.728;2022-08-21T14:06:22;31.60;99.90
17984;DHT22;9117;52.420;20.728;2022-08-21T14:08:53;31.70;99.90
17984;DHT22;9117;52.420;20.728;2022-08-21T14:11:23;31.20;99.90
17984;DHT22;9117;52.420;20.728;2022-08-21T14:13:58;31.60;99.90
17984;DHT22;9117;52.420;20.728;2022-08-21T14:16:41;31.80;99.90
17984;DHT22;9117;52.420;20.728;2022-08-21T14:19:18;31.40;99.90
17984;DHT22;9117;52.420;20.728;2022-08-21T14:21:48;31.70;99.90
17984;DHT22;9117;52.420;20.728;2022-08-21T14:24:26;31.60;99.90
17984;DHT22;9117;52.420;20.728;2022-08-21T14:26:56;31.20;99.90
17984;DHT22;9117;52.420;20.728;2022-08-21T14:29:27;30.70;99.90
17984;DHT22;9117;52.420;20.728;2022-08-21T14:32:11;31.40;99.90
17984;DHT22;9117;52.420;20.728;2022-08-21T14:34:51;31.70;99.90
17984;DHT22;9117;52.420;20.728;2022-08-21T14:37:20;32.00;99.90
17984;DHT22;9117;52.420;20.728;2022-08-21T14:39:49;32.30;99.90
17984;DHT22;9117;52.420;20.728;2022-08-21T14:42:17;32.70;99.90
17984;DHT22;9117;52.420;20.728;2022-08-21T14:44:45;32.90;99.90
17984;DHT22;9117;52.420;20.728;2022-08-21T14:47:15;32.80;99.90
17984;DHT22;9117;52.420;20.728;2022-08-21T14:49:43;31.80;99.90
17984;DHT22;9117;52.420;20.728;2022-08-21T14:52:11;30.70;99.90
17984;DHT22;9117;52.420;20.728;2022-08-21T14:54:39;30.80;99.90
17984;DHT22;9117;52.420;20.728;2022-08-21T14:57:09;31.40;99.90
17984;DHT22;9117;52.420;20.728;2022-08-21T14:59:39;31.70;99.90
17984;DHT22;9117;52.420;20.728;2022-08-21T15:02:08;31.20;99.90
17984;DHT22;9117;52.420;20.728;2022-08-21T15:04:38;30.60;99.90
17984;DHT22;9117;52.420;20.728;2022-08-21T15:07:06;29.90;99.90
17984;DHT22;9117;52.420;20.728;2022-08-21T15:09:34;29.70;99.90
17984;DHT22;9117;52.420;20.728;2022-08-21T15:12:03;29.60;99.90
17984;DHT22;9117;52.420;20.728;2022-08-21T15:14:34;29.80;99.90
17984;DHT22;9117;52.420;20.728;2022-08-21T15:17:06;30.10;99.90
17984;DHT22;9117;52.420;20.728;2022-08-21T15:19:35;30.30;99.90
17984;DHT22;9117;52.420;20.728;2022-08-21T15:22:05;30.50;99.90
17984;DHT22;9117;52.420;20.728;2022-08-21T15:24:45;30.50;99.90
17984;DHT22;9117;52.420;20.728;2022-08-21T15:27:13;30.90;99.90
17984;DHT22;9117;52.420;20.728;2022-08-21T15:29:43;31.10;99.90
17984;DHT22;9117;52.420;20.728;2022-08-21T15:32:18;31.10;99.90
17984;DHT22;9117;52.420;20.728;2022-08-21T15:34:47;31.50;99.90
17984;DHT22;9117;52.420;20.728;2022-08-21T15:37:17;31.40;99.90
17984;DHT22;9117;52.420;20.728;2022-08-21T15:39:45;31.10;99.90
17984;DHT22;9117;52.420;20.728;2022-08-21T15:42:20;31.00;99.90
17984;DHT22;9117;52.420;20.728;2022-08-21T15:44:48;30.80;99.90
17984;DHT22;9117;52.420;20.728;2022-08-21T15:47:23;30.90;99.90
17984;DHT22;9117;52.420;20.728;2022-08-21T15:49:52;31.00;99.90
17984;DHT22;9117;52.420;20.728;2022-08-21T15:52:22;31.10;99.90
17984;DHT22;9117;52.420;20.728;2022-08-21T15:54:51;31.00;99.90
17984;DHT22;9117;52.420;20.728;2022-08-21T15:57:22;30.70;99.90
17984;DHT22;9117;52.420;20.728;2022-08-21T15:59:53;30.50;99.90
17984;DHT22;9117;52.420;20.728;2022-08-21T16:02:25;30.10;99.90
17984;DHT22;9117;52.420;20.728;2022-08-21T16:04:54;30.10;99.90
17984;DHT22;9117;52.420;20.728;2022-08-21T16:07:24;30.10;99.90
17984;DHT22;9117;52.420;20.728;2022-08-21T16:09:52;30.10;99.90
17984;DHT22;9117;52.420;20.728;2022-08-21T16:12:23;30.20;99.90